SWR92W LSZH-EDDH
Flight info
| Callsign | SWR92W |
|---|---|
| Flight time | 1h 5m |
| Altitude | 36000 |
| Route | DEGES Z1 ETAGO DCT HAREM/N0444F370 DCT LOHRE DCT ELNAT/N0443F360 P605 NOLGO NOLGO3S |
| Aircraft | A321/M-SDE3FGHIRWY/LB1 |
Departure
| Time | 2026-05-05 06:50 |
|---|---|
| Airport | Zürich Airport (LSZH) |
Arrival
| Time | 2026-05-05 07:55 |
|---|---|
| Airport | Hamburg Helmut Schmidt Airport (EDDH) |
| Time | Latitude | Longitude | Altitude | Speed | Heading |
|---|---|---|---|---|---|
| 2026-05-05 05:59 | 47.45428 | 8.55692 | 1452 ft | 0 kts | 186° |
| 2026-05-05 06:01 | 47.45434 | 8.55693 | 1408 ft | 0 kts | 186° |
| 2026-05-05 06:39 | 47.45436 | 8.55693 | 1424 ft | 2 kts | 186° |
| 2026-05-05 06:40 | 47.45462 | 8.55697 | 1399 ft | 4 kts | 185° |
| 2026-05-05 06:40 | 47.45488 | 8.55696 | 1405 ft | 4 kts | 163° |
| 2026-05-05 06:40 | 47.45510 | 8.55678 | 1406 ft | 4 kts | 121° |
| 2026-05-05 06:40 | 47.45515 | 8.55661 | 1406 ft | 0 kts | 96° |
| 2026-05-05 06:44 | 47.45512 | 8.55695 | 1403 ft | 8 kts | 96° |
| 2026-05-05 06:44 | 47.45504 | 8.55817 | 1405 ft | 14 kts | 96° |
| 2026-05-05 06:44 | 47.45494 | 8.55955 | 1399 ft | 13 kts | 96° |
| 2026-05-05 06:45 | 47.45484 | 8.56085 | 1397 ft | 12 kts | 96° |
| 2026-05-05 06:45 | 47.45480 | 8.56204 | 1397 ft | 11 kts | 78° |
| 2026-05-05 06:45 | 47.45525 | 8.56301 | 1400 ft | 12 kts | 51° |
| 2026-05-05 06:45 | 47.45579 | 8.56400 | 1401 ft | 11 kts | 50° |
| 2026-05-05 06:46 | 47.45594 | 8.56498 | 1399 ft | 9 kts | 96° |
| 2026-05-05 06:46 | 47.45586 | 8.56586 | 1399 ft | 8 kts | 96° |
| 2026-05-05 06:46 | 47.45581 | 8.56673 | 1405 ft | 10 kts | 95° |
| 2026-05-05 06:46 | 47.45574 | 8.56771 | 1405 ft | 9 kts | 96° |
| 2026-05-05 06:47 | 47.45568 | 8.56858 | 1400 ft | 8 kts | 96° |
| 2026-05-05 06:47 | 47.45561 | 8.56965 | 1400 ft | 11 kts | 88° |
| 2026-05-05 06:47 | 47.45595 | 8.57018 | 1405 ft | 4 kts | 15° |
| 2026-05-05 06:47 | 47.45618 | 8.57023 | 1406 ft | 4 kts | 6° |
| 2026-05-05 06:48 | 47.45659 | 8.57027 | 1406 ft | 4 kts | 351° |
| 2026-05-05 06:48 | 47.45663 | 8.57005 | 1410 ft | 1 kts | 277° |
| 2026-05-05 06:48 | 47.45664 | 8.56998 | 1409 ft | 0 kts | 277° |
| 2026-05-05 06:48 | 47.45664 | 8.56994 | 1406 ft | 3 kts | 277° |
| 2026-05-05 06:49 | 47.45677 | 8.56803 | 1414 ft | 50 kts | 275° |
| 2026-05-05 06:49 | 47.45739 | 8.55925 | 1401 ft | 118 kts | 276° |
| 2026-05-05 06:49 | 47.45840 | 8.54455 | 1409 ft | 166 kts | 275° |
| 2026-05-05 06:49 | 47.45960 | 8.52693 | 1900 ft | 172 kts | 276° |
| 2026-05-05 06:50 | 47.46081 | 8.50940 | 2627 ft | 171 kts | 275° |
| 2026-05-05 06:50 | 47.46188 | 8.49186 | 3270 ft | 173 kts | 272° |
| 2026-05-05 06:50 | 47.46014 | 8.47396 | 3638 ft | 183 kts | 246° |
| 2026-05-05 06:50 | 47.45363 | 8.45716 | 3993 ft | 193 kts | 239° |
| 2026-05-05 06:51 | 47.44678 | 8.43946 | 4320 ft | 204 kts | 239° |
| 2026-05-05 06:51 | 47.43958 | 8.42112 | 4617 ft | 214 kts | 239° |
| 2026-05-05 06:51 | 47.43188 | 8.40146 | 4893 ft | 229 kts | 239° |
| 2026-05-05 06:51 | 47.42305 | 8.38152 | 5315 ft | 237 kts | 226° |
| 2026-05-05 06:52 | 47.40897 | 8.36909 | 5814 ft | 241 kts | 191° |
| 2026-05-05 06:52 | 47.39260 | 8.37151 | 6443 ft | 239 kts | 154° |
| 2026-05-05 06:52 | 47.38067 | 8.38782 | 7134 ft | 237 kts | 120° |
| 2026-05-05 06:52 | 47.37683 | 8.41108 | 7831 ft | 236 kts | 89° |
| 2026-05-05 06:53 | 47.38168 | 8.43411 | 8440 ft | 241 kts | 57° |
| 2026-05-05 06:53 | 47.39299 | 8.45258 | 9040 ft | 245 kts | 46° |
| 2026-05-05 06:53 | 47.40531 | 8.47026 | 9589 ft | 249 kts | 45° |
| 2026-05-05 06:53 | 47.41788 | 8.48816 | 10125 ft | 253 kts | 45° |
| 2026-05-05 06:54 | 47.43061 | 8.50632 | 10634 ft | 256 kts | 46° |
| 2026-05-05 06:54 | 47.44348 | 8.52478 | 11163 ft | 259 kts | 47° |
| 2026-05-05 06:54 | 47.45539 | 8.54496 | 11675 ft | 261 kts | 58° |
| 2026-05-05 06:54 | 47.46242 | 8.56981 | 11954 ft | 270 kts | 82° |
| 2026-05-05 06:55 | 47.46435 | 8.59820 | 12111 ft | 291 kts | 92° |
| 2026-05-05 06:55 | 47.46423 | 8.62923 | 12300 ft | 314 kts | 95° |
| 2026-05-05 06:55 | 47.46366 | 8.66269 | 12485 ft | 337 kts | 94° |
| 2026-05-05 06:55 | 47.46342 | 8.69832 | 12765 ft | 354 kts | 92° |
| 2026-05-05 06:56 | 47.46382 | 8.73524 | 13255 ft | 364 kts | 91° |
| 2026-05-05 06:56 | 47.46483 | 8.77285 | 13905 ft | 369 kts | 90° |
| 2026-05-05 06:56 | 47.46837 | 8.81078 | 14423 ft | 379 kts | 76° |
| 2026-05-05 06:56 | 47.47993 | 8.84621 | 14994 ft | 388 kts | 56° |
| 2026-05-05 06:57 | 47.49931 | 8.87436 | 15591 ft | 395 kts | 35° |
| 2026-05-05 06:57 | 47.52288 | 8.89541 | 16220 ft | 397 kts | 31° |
| 2026-05-05 06:57 | 47.54688 | 8.91611 | 16844 ft | 401 kts | 31° |
| 2026-05-05 06:57 | 47.57104 | 8.93692 | 17450 ft | 404 kts | 31° |
| 2026-05-05 06:58 | 47.59540 | 8.95793 | 18054 ft | 407 kts | 31° |
| 2026-05-05 06:58 | 47.61995 | 8.97916 | 18581 ft | 410 kts | 31° |
| 2026-05-05 06:58 | 47.64467 | 9.00062 | 19081 ft | 413 kts | 31° |
| 2026-05-05 06:58 | 47.66951 | 9.02228 | 19575 ft | 416 kts | 31° |
| 2026-05-05 06:59 | 47.69453 | 9.04419 | 20067 ft | 419 kts | 31° |
| 2026-05-05 06:59 | 47.71968 | 9.06629 | 20568 ft | 422 kts | 31° |
| 2026-05-05 06:59 | 47.74504 | 9.08858 | 21056 ft | 425 kts | 31° |
| 2026-05-05 06:59 | 47.77058 | 9.11103 | 21543 ft | 428 kts | 31° |
| 2026-05-05 07:00 | 47.79630 | 9.13359 | 22026 ft | 431 kts | 31° |
| 2026-05-05 07:00 | 47.82227 | 9.15636 | 22510 ft | 434 kts | 31° |
| 2026-05-05 07:00 | 47.84833 | 9.17928 | 22973 ft | 437 kts | 31° |
| 2026-05-05 07:00 | 47.87465 | 9.20251 | 23400 ft | 441 kts | 31° |
| 2026-05-05 07:01 | 47.90115 | 9.22596 | 23786 ft | 444 kts | 31° |
| 2026-05-05 07:01 | 47.92779 | 9.24958 | 24180 ft | 447 kts | 31° |
| 2026-05-05 07:01 | 47.95458 | 9.27334 | 24569 ft | 449 kts | 31° |
| 2026-05-05 07:01 | 47.98154 | 9.29724 | 24951 ft | 452 kts | 31° |
| 2026-05-05 07:02 | 48.00866 | 9.32125 | 25330 ft | 454 kts | 31° |
| 2026-05-05 07:02 | 48.03569 | 9.34516 | 25701 ft | 457 kts | 31° |
| 2026-05-05 07:02 | 48.06310 | 9.36943 | 26071 ft | 459 kts | 31° |
| 2026-05-05 07:02 | 48.09063 | 9.39394 | 26428 ft | 462 kts | 31° |
| 2026-05-05 07:03 | 48.11836 | 9.41869 | 26790 ft | 464 kts | 30° |
| 2026-05-05 07:03 | 48.14729 | 9.44006 | 27196 ft | 465 kts | 21° |
| 2026-05-05 07:03 | 48.17814 | 9.45452 | 27566 ft | 465 kts | 11° |
| 2026-05-05 07:03 | 48.21017 | 9.46149 | 27918 ft | 465 kts | 1° |
| 2026-05-05 07:04 | 48.24257 | 9.46212 | 28264 ft | 467 kts | 358° |
| 2026-05-05 07:04 | 48.27513 | 9.46200 | 28611 ft | 469 kts | 358° |
| 2026-05-05 07:04 | 48.30785 | 9.46191 | 28898 ft | 472 kts | 358° |
| 2026-05-05 07:04 | 48.34083 | 9.46189 | 29210 ft | 475 kts | 358° |
| 2026-05-05 07:05 | 48.37390 | 9.46191 | 29536 ft | 477 kts | 358° |
| 2026-05-05 07:05 | 48.40715 | 9.46195 | 29857 ft | 479 kts | 358° |
| 2026-05-05 07:05 | 48.44067 | 9.46201 | 30149 ft | 481 kts | 358° |
| 2026-05-05 07:05 | 48.47409 | 9.46212 | 30516 ft | 480 kts | 358° |
| 2026-05-05 07:06 | 48.50750 | 9.46218 | 30891 ft | 480 kts | 358° |
| 2026-05-05 07:06 | 48.54093 | 9.46219 | 31254 ft | 480 kts | 357° |
| 2026-05-05 07:06 | 48.57437 | 9.46203 | 31602 ft | 481 kts | 357° |
| 2026-05-05 07:06 | 48.59655 | 9.46181 | 31848 ft | 481 kts | 357° |
| 2026-05-05 07:07 | 48.62999 | 9.46134 | 32216 ft | 481 kts | 356° |
| 2026-05-05 07:07 | 48.66345 | 9.46081 | 32585 ft | 481 kts | 356° |
| 2026-05-05 07:07 | 48.70781 | 9.46015 | 33074 ft | 481 kts | 356° |
| 2026-05-05 07:07 | 48.74131 | 9.45964 | 33446 ft | 481 kts | 356° |
| 2026-05-05 07:08 | 48.76392 | 9.45898 | 33693 ft | 481 kts | 355° |
| 2026-05-05 07:08 | 48.79737 | 9.45749 | 34025 ft | 481 kts | 355° |
| 2026-05-05 07:08 | 48.83083 | 9.45558 | 34336 ft | 480 kts | 355° |
| 2026-05-05 07:08 | 48.86422 | 9.45354 | 34659 ft | 480 kts | 355° |
| 2026-05-05 07:09 | 48.89755 | 9.45151 | 34995 ft | 479 kts | 355° |
| 2026-05-05 07:09 | 48.93083 | 9.44960 | 35319 ft | 478 kts | 355° |
| 2026-05-05 07:09 | 48.96370 | 9.44786 | 35653 ft | 477 kts | 355° |
| 2026-05-05 07:09 | 48.99699 | 9.44619 | 35846 ft | 477 kts | 355° |
| 2026-05-05 07:10 | 49.03004 | 9.44463 | 35885 ft | 474 kts | 355° |
| 2026-05-05 07:10 | 49.09597 | 9.44145 | 35883 ft | 472 kts | 355° |
| 2026-05-05 07:11 | 49.16152 | 9.43811 | 35884 ft | 471 kts | 354° |
| 2026-05-05 07:11 | 49.22685 | 9.43469 | 35874 ft | 469 kts | 354° |
| 2026-05-05 07:12 | 49.29215 | 9.43131 | 35873 ft | 469 kts | 355° |
| 2026-05-05 07:12 | 49.35711 | 9.42792 | 35874 ft | 470 kts | 354° |
| 2026-05-05 07:13 | 49.42239 | 9.42455 | 35883 ft | 469 kts | 354° |
| 2026-05-05 07:13 | 49.48768 | 9.42124 | 35888 ft | 469 kts | 355° |
| 2026-05-05 07:14 | 49.55295 | 9.41788 | 35873 ft | 470 kts | 355° |
| 2026-05-05 07:14 | 49.61836 | 9.41525 | 35874 ft | 472 kts | 359° |
| 2026-05-05 07:15 | 49.68403 | 9.42474 | 35872 ft | 474 kts | 3° |
| 2026-05-05 07:15 | 49.74973 | 9.43534 | 35876 ft | 475 kts | 3° |
| 2026-05-05 07:16 | 49.81547 | 9.44601 | 35894 ft | 475 kts | 2° |
| 2026-05-05 07:16 | 49.88125 | 9.45661 | 35892 ft | 475 kts | 3° |
| 2026-05-05 07:17 | 49.94671 | 9.46715 | 35886 ft | 475 kts | 2° |
| 2026-05-05 07:17 | 50.01247 | 9.47763 | 35888 ft | 475 kts | 2° |
| 2026-05-05 07:18 | 50.07817 | 9.48833 | 35901 ft | 475 kts | 2° |
| 2026-05-05 07:18 | 50.14391 | 9.49965 | 35896 ft | 475 kts | 3° |
| 2026-05-05 07:19 | 50.20964 | 9.51141 | 35896 ft | 475 kts | 3° |
| 2026-05-05 07:19 | 50.27536 | 9.52311 | 35907 ft | 475 kts | 2° |
| 2026-05-05 07:20 | 50.34108 | 9.53481 | 35908 ft | 475 kts | 2° |
| 2026-05-05 07:20 | 50.40683 | 9.54652 | 35905 ft | 475 kts | 2° |
| 2026-05-05 07:21 | 50.47250 | 9.55822 | 35903 ft | 475 kts | 2° |
| 2026-05-05 07:21 | 50.53828 | 9.56997 | 35918 ft | 474 kts | 2° |
| 2026-05-05 07:22 | 50.60383 | 9.58168 | 35911 ft | 474 kts | 2° |
| 2026-05-05 07:22 | 50.66931 | 9.59350 | 35906 ft | 473 kts | 2° |
| 2026-05-05 07:23 | 50.73476 | 9.60535 | 35904 ft | 473 kts | 2° |
| 2026-05-05 07:23 | 50.79981 | 9.61711 | 35898 ft | 473 kts | 2° |
| 2026-05-05 07:24 | 50.86529 | 9.62897 | 35898 ft | 473 kts | 2° |
| 2026-05-05 07:24 | 50.93073 | 9.64078 | 35899 ft | 473 kts | 2° |
| 2026-05-05 07:25 | 50.99616 | 9.65266 | 35918 ft | 473 kts | 1° |
| 2026-05-05 07:25 | 51.06146 | 9.66468 | 35921 ft | 472 kts | 2° |
| 2026-05-05 07:26 | 51.12674 | 9.67676 | 35920 ft | 472 kts | 2° |
| 2026-05-05 07:26 | 51.19193 | 9.68873 | 35940 ft | 471 kts | 1° |
| 2026-05-05 07:27 | 51.25698 | 9.70013 | 35932 ft | 469 kts | 1° |
| 2026-05-05 07:27 | 51.32173 | 9.71037 | 35933 ft | 467 kts | 0° |
| 2026-05-05 07:28 | 51.38640 | 9.72044 | 35929 ft | 466 kts | 0° |
| 2026-05-05 07:28 | 51.45092 | 9.73085 | 35945 ft | 466 kts | 1° |
| 2026-05-05 07:29 | 51.51532 | 9.74198 | 35936 ft | 465 kts | 2° |
| 2026-05-05 07:29 | 51.57959 | 9.75429 | 35866 ft | 463 kts | 2° |
| 2026-05-05 07:29 | 51.61163 | 9.76061 | 35278 ft | 463 kts | 2° |
| 2026-05-05 07:30 | 51.64361 | 9.76686 | 34703 ft | 463 kts | 1° |
| 2026-05-05 07:30 | 51.70764 | 9.77917 | 33414 ft | 463 kts | 1° |
| 2026-05-05 07:30 | 51.73970 | 9.78525 | 32663 ft | 464 kts | 1° |
| 2026-05-05 07:31 | 51.77185 | 9.79131 | 31898 ft | 466 kts | 1° |
| 2026-05-05 07:31 | 51.80408 | 9.79736 | 31139 ft | 467 kts | 1° |
| 2026-05-05 07:31 | 51.83623 | 9.80346 | 30573 ft | 464 kts | 1° |
| 2026-05-05 07:31 | 51.86821 | 9.80958 | 30023 ft | 460 kts | 1° |
| 2026-05-05 07:32 | 51.89987 | 9.81569 | 29449 ft | 457 kts | 1° |
| 2026-05-05 07:32 | 51.93127 | 9.82264 | 28849 ft | 455 kts | 4° |
| 2026-05-05 07:32 | 51.96188 | 9.83166 | 28299 ft | 452 kts | 6° |
| 2026-05-05 07:32 | 51.99256 | 9.84243 | 27725 ft | 449 kts | 8° |
| 2026-05-05 07:33 | 52.02288 | 9.85392 | 27181 ft | 445 kts | 8° |
| 2026-05-05 07:33 | 52.05292 | 9.86538 | 26654 ft | 441 kts | 8° |
| 2026-05-05 07:33 | 52.08269 | 9.87640 | 26115 ft | 437 kts | 8° |
| 2026-05-05 07:33 | 52.11226 | 9.88695 | 25607 ft | 433 kts | 8° |
| 2026-05-05 07:34 | 52.14163 | 9.89711 | 25062 ft | 430 kts | 8° |
| 2026-05-05 07:34 | 52.17079 | 9.90700 | 24539 ft | 426 kts | 8° |
| 2026-05-05 07:34 | 52.19976 | 9.91676 | 24023 ft | 423 kts | 8° |
| 2026-05-05 07:34 | 52.22849 | 9.92642 | 23522 ft | 419 kts | 8° |
| 2026-05-05 07:35 | 52.25694 | 9.93602 | 22939 ft | 416 kts | 8° |
| 2026-05-05 07:35 | 52.28520 | 9.94568 | 22373 ft | 412 kts | 8° |
| 2026-05-05 07:35 | 52.31314 | 9.95532 | 21813 ft | 408 kts | 9° |
| 2026-05-05 07:35 | 52.34080 | 9.96491 | 21266 ft | 405 kts | 9° |
| 2026-05-05 07:36 | 52.36826 | 9.97449 | 20759 ft | 401 kts | 9° |
| 2026-05-05 07:36 | 52.39540 | 9.98397 | 20243 ft | 397 kts | 9° |
| 2026-05-05 07:36 | 52.42228 | 9.99338 | 19735 ft | 394 kts | 9° |
| 2026-05-05 07:36 | 52.44901 | 10.00270 | 19239 ft | 391 kts | 9° |
| 2026-05-05 07:37 | 52.47558 | 10.01196 | 18758 ft | 388 kts | 9° |
| 2026-05-05 07:37 | 52.50191 | 10.02115 | 18301 ft | 385 kts | 9° |
| 2026-05-05 07:37 | 52.52806 | 10.03030 | 17771 ft | 383 kts | 9° |
| 2026-05-05 07:37 | 52.55401 | 10.03938 | 17251 ft | 380 kts | 9° |
| 2026-05-05 07:38 | 52.57980 | 10.04838 | 16745 ft | 378 kts | 9° |
| 2026-05-05 07:38 | 52.60541 | 10.05733 | 16250 ft | 376 kts | 9° |
| 2026-05-05 07:38 | 52.63091 | 10.06627 | 15758 ft | 373 kts | 9° |
| 2026-05-05 07:38 | 52.65620 | 10.07515 | 15285 ft | 371 kts | 9° |
| 2026-05-05 07:39 | 52.68111 | 10.08392 | 14822 ft | 368 kts | 9° |
| 2026-05-05 07:39 | 52.70609 | 10.09274 | 14357 ft | 366 kts | 9° |
| 2026-05-05 07:39 | 52.73093 | 10.10152 | 13903 ft | 364 kts | 9° |
| 2026-05-05 07:39 | 52.75562 | 10.11021 | 13427 ft | 362 kts | 9° |
| 2026-05-05 07:40 | 52.78022 | 10.11715 | 12954 ft | 356 kts | 2° |
| 2026-05-05 07:40 | 52.80485 | 10.11863 | 12503 ft | 352 kts | 358° |
| 2026-05-05 07:40 | 52.82919 | 10.11931 | 12084 ft | 348 kts | 359° |
| 2026-05-05 07:40 | 52.85318 | 10.12008 | 11716 ft | 342 kts | 359° |
| 2026-05-05 07:41 | 52.87687 | 10.12090 | 11295 ft | 338 kts | 359° |
| 2026-05-05 07:41 | 52.90047 | 10.12171 | 10960 ft | 336 kts | 360° |
| 2026-05-05 07:41 | 52.92385 | 10.12254 | 10910 ft | 336 kts | 359° |
| 2026-05-05 07:41 | 52.94728 | 10.12335 | 10918 ft | 336 kts | 359° |
| 2026-05-05 07:42 | 52.97068 | 10.12413 | 10919 ft | 336 kts | 359° |
| 2026-05-05 07:42 | 52.99407 | 10.12487 | 10920 ft | 336 kts | 359° |
| 2026-05-05 07:42 | 53.01721 | 10.12561 | 10921 ft | 336 kts | 360° |
| 2026-05-05 07:42 | 53.04067 | 10.12641 | 10923 ft | 336 kts | 359° |
| 2026-05-05 07:43 | 53.06413 | 10.12720 | 10926 ft | 336 kts | 359° |
| 2026-05-05 07:43 | 53.08711 | 10.12796 | 10920 ft | 322 kts | 359° |
| 2026-05-05 07:43 | 53.10860 | 10.12357 | 10855 ft | 304 kts | 338° |
| 2026-05-05 07:43 | 53.12683 | 10.10771 | 10684 ft | 291 kts | 326° |
| 2026-05-05 07:44 | 53.14370 | 10.08949 | 10357 ft | 287 kts | 324° |
| 2026-05-05 07:44 | 53.16030 | 10.07121 | 10011 ft | 285 kts | 324° |
| 2026-05-05 07:44 | 53.17677 | 10.05285 | 9614 ft | 284 kts | 323° |
| 2026-05-05 07:44 | 53.19314 | 10.03463 | 9226 ft | 282 kts | 324° |
| 2026-05-05 07:45 | 53.20937 | 10.01647 | 8822 ft | 281 kts | 324° |
| 2026-05-05 07:45 | 53.22550 | 9.99818 | 8417 ft | 279 kts | 324° |
| 2026-05-05 07:45 | 53.24154 | 9.98016 | 8043 ft | 277 kts | 324° |
| 2026-05-05 07:45 | 53.25750 | 9.96235 | 7626 ft | 275 kts | 323° |
| 2026-05-05 07:46 | 53.27318 | 9.94481 | 7252 ft | 274 kts | 324° |
| 2026-05-05 07:46 | 53.28902 | 9.92738 | 6885 ft | 271 kts | 324° |
| 2026-05-05 07:46 | 53.30472 | 9.90999 | 6490 ft | 270 kts | 325° |
| 2026-05-05 07:46 | 53.32030 | 9.89256 | 6094 ft | 269 kts | 324° |
| 2026-05-05 07:47 | 53.33585 | 9.87527 | 5710 ft | 267 kts | 325° |
| 2026-05-05 07:47 | 53.35118 | 9.85775 | 5294 ft | 266 kts | 324° |
| 2026-05-05 07:47 | 53.36640 | 9.84027 | 4904 ft | 264 kts | 324° |
| 2026-05-05 07:47 | 53.38154 | 9.82293 | 4506 ft | 263 kts | 324° |
| 2026-05-05 07:48 | 53.39649 | 9.80572 | 4271 ft | 256 kts | 324° |
| 2026-05-05 07:48 | 53.41083 | 9.78910 | 4121 ft | 246 kts | 324° |
| 2026-05-05 07:48 | 53.42460 | 9.77310 | 4009 ft | 236 kts | 324° |
| 2026-05-05 07:48 | 53.43790 | 9.75758 | 3902 ft | 229 kts | 324° |
| 2026-05-05 07:49 | 53.45076 | 9.74245 | 3756 ft | 222 kts | 324° |
| 2026-05-05 07:49 | 53.46307 | 9.72791 | 3654 ft | 212 kts | 325° |
| 2026-05-05 07:49 | 53.47642 | 9.71896 | 3379 ft | 208 kts | 356° |
| 2026-05-05 07:49 | 53.49035 | 9.72395 | 3102 ft | 206 kts | 28° |
| 2026-05-05 07:50 | 53.50136 | 9.73839 | 3037 ft | 196 kts | 43° |
| 2026-05-05 07:50 | 53.51116 | 9.75328 | 3045 ft | 183 kts | 42° |
| 2026-05-05 07:50 | 53.52016 | 9.76800 | 3029 ft | 178 kts | 47° |
| 2026-05-05 07:50 | 53.52566 | 9.77814 | 2947 ft | 176 kts | 49° |
| 2026-05-05 07:51 | 53.53363 | 9.79360 | 2759 ft | 173 kts | 50° |
| 2026-05-05 07:51 | 53.54133 | 9.80889 | 2531 ft | 170 kts | 50° |
| 2026-05-05 07:51 | 53.54890 | 9.82404 | 2302 ft | 169 kts | 50° |
| 2026-05-05 07:51 | 53.55627 | 9.83883 | 2077 ft | 161 kts | 51° |
| 2026-05-05 07:52 | 53.56320 | 9.85275 | 1875 ft | 151 kts | 51° |
| 2026-05-05 07:52 | 53.56983 | 9.86609 | 1664 ft | 148 kts | 50° |
| 2026-05-05 07:52 | 53.57630 | 9.87910 | 1473 ft | 139 kts | 51° |
| 2026-05-05 07:52 | 53.58237 | 9.89134 | 1261 ft | 134 kts | 50° |
| 2026-05-05 07:53 | 53.58829 | 9.90330 | 1030 ft | 131 kts | 49° |
| 2026-05-05 07:53 | 53.59420 | 9.91516 | 904 ft | 132 kts | 49° |
| 2026-05-05 07:53 | 53.60014 | 9.92704 | 688 ft | 131 kts | 48° |
| 2026-05-05 07:53 | 53.60605 | 9.93903 | 503 ft | 135 kts | 49° |
| 2026-05-05 07:54 | 53.61207 | 9.95122 | 317 ft | 135 kts | 50° |
| 2026-05-05 07:54 | 53.61804 | 9.96329 | 121 ft | 133 kts | 49° |
| 2026-05-05 07:54 | 53.62391 | 9.97508 | 45 ft | 124 kts | 49° |
| 2026-05-05 07:54 | 53.62847 | 9.98433 | 44 ft | 77 kts | 50° |
| 2026-05-05 07:55 | 53.63104 | 9.98954 | 46 ft | 49 kts | 51° |
| 2026-05-05 07:55 | 53.63260 | 9.99282 | 47 ft | 26 kts | 58° |
| 2026-05-05 07:55 | 53.63289 | 9.99532 | 47 ft | 13 kts | 97° |
| 2026-05-05 07:55 | 53.63278 | 9.99648 | 48 ft | 9 kts | 99° |
| 2026-05-05 07:56 | 53.63276 | 9.99747 | 49 ft | 8 kts | 69° |
| 2026-05-05 07:56 | 53.63324 | 9.99852 | 48 ft | 15 kts | 50° |
| 2026-05-05 07:56 | 53.63389 | 9.99984 | 48 ft | 14 kts | 50° |
| 2026-05-05 07:56 | 53.63433 | 10.00096 | 48 ft | 10 kts | 86° |
| 2026-05-05 07:57 | 53.63390 | 10.00156 | 48 ft | 8 kts | 169° |
| 2026-05-05 07:57 | 53.63341 | 10.00168 | 48 ft | 6 kts | 161° |
| 2026-05-05 07:57 | 53.63326 | 10.00217 | 48 ft | 4 kts | 97° |
| 2026-05-05 07:57 | 53.63328 | 10.00281 | 48 ft | 5 kts | 85° |
| 2026-05-05 07:58 | 53.63329 | 10.00323 | 48 ft | 2 kts | 86° |
| 2026-05-05 07:58 | 53.63330 | 10.00338 | 48 ft | 1 kts | 86° |
| 2026-05-05 07:58 | 53.63330 | 10.00347 | 48 ft | 0 kts | 86° |